createdAt,value
2022-09-12T00:20:30.227Z,59.61
2022-09-12T00:22:57.264Z,60.07
2022-09-12T00:25:23.256Z,60.33
2022-09-12T00:27:50.032Z,60.68
2022-09-12T00:30:16.064Z,61.05
2022-09-12T00:32:42.068Z,61.19
2022-09-12T00:35:09.018Z,61.70
2022-09-12T00:37:35.052Z,62.14
2022-09-12T00:40:01.142Z,63.05
2022-09-12T00:42:27.923Z,63.43
2022-09-12T00:44:53.977Z,62.73
2022-09-12T00:47:20.002Z,61.94
2022-09-12T00:49:46.893Z,61.59
2022-09-12T00:52:13.098Z,62.37
2022-09-12T00:54:39.104Z,62.38
2022-09-12T00:57:05.133Z,61.89
2022-09-12T00:59:32.241Z,62.76
2022-09-12T01:01:58.404Z,62.57
2022-09-12T01:04:25.435Z,62.50
2022-09-12T01:06:51.507Z,63.04
2022-09-12T01:09:17.580Z,63.52
2022-09-12T01:11:43.589Z,63.23
2022-09-12T01:14:09.689Z,62.59
2022-09-12T01:16:36.542Z,62.73
2022-09-12T01:19:03.165Z,62.44
2022-09-12T01:21:29.234Z,62.59
2022-09-12T01:23:55.319Z,62.66
2022-09-12T01:26:22.257Z,62.55
2022-09-12T01:28:49.158Z,62.46
2022-09-12T01:31:16.049Z,62.06
2022-09-12T01:33:42.752Z,61.60
2022-09-12T01:36:08.859Z,61.04
2022-09-12T01:38:35.615Z,60.80
2022-09-12T01:41:01.629Z,61.00
2022-09-12T01:43:27.696Z,61.39
2022-09-12T01:45:54.715Z,61.39
2022-09-12T01:48:21.617Z,61.29
2022-09-12T01:50:48.520Z,61.68
2022-09-12T01:53:15.325Z,62.01
2022-09-12T01:55:41.413Z,61.70
2022-09-12T01:58:07.457Z,62.03
2022-09-12T02:00:35.155Z,62.48
2022-09-12T02:03:01.707Z,61.99
2022-09-12T02:05:28.104Z,61.65
2022-09-12T02:07:55.010Z,62.53
2022-09-12T02:10:21.037Z,62.75
2022-09-12T02:12:47.095Z,62.61
2022-09-12T02:15:14.087Z,62.83
2022-09-12T02:17:42.246Z,62.57
2022-09-12T02:20:08.306Z,62.77
2022-09-12T02:22:34.391Z,63.09
2022-09-12T02:25:00.397Z,62.66
2022-09-12T02:27:27.360Z,62.20
2022-09-12T02:29:53.419Z,62.13
2022-09-12T02:32:19.441Z,62.55
2022-09-12T02:34:46.237Z,62.89
2022-09-12T02:37:12.316Z,62.67
2022-09-12T02:39:41.095Z,62.35
2022-09-12T02:42:10.476Z,62.57
2022-09-12T02:44:37.573Z,62.82
2022-09-12T02:47:03.711Z,62.78
2022-09-12T02:49:29.914Z,62.38
2022-09-12T02:51:56.803Z,62.89
2022-09-12T02:54:23.010Z,62.67
2022-09-12T02:56:49.012Z,62.87
2022-09-12T02:59:17.843Z,62.86
2022-09-12T03:01:44.071Z,62.69
2022-09-12T03:04:10.170Z,62.63
2022-09-12T03:06:37.356Z,62.94
2022-09-12T03:09:03.480Z,63.34
2022-09-12T03:14:10.817Z,63.66
2022-09-12T05:23:59.736Z,62.02
2022-09-12T05:26:26.239Z,62.08
2022-09-12T05:28:52.221Z,61.66
2022-09-12T05:31:18.168Z,61.01
2022-09-12T05:33:44.876Z,61.49
2022-09-12T05:36:10.830Z,60.89
2022-09-12T05:38:36.797Z,61.09
2022-09-12T05:41:02.740Z,60.73
2022-09-12T05:43:28.683Z,60.22
2022-09-12T05:45:54.639Z,59.80
2022-09-12T05:48:20.611Z,59.62
2022-09-12T05:50:47.261Z,59.50
2022-09-12T05:53:13.269Z,59.00
2022-09-12T05:55:39.227Z,59.02
2022-09-12T05:58:06.043Z,59.02
2022-09-12T06:00:33.612Z,58.18
2022-09-12T06:02:59.697Z,58.02
2022-09-12T06:08:10.685Z,57.39
2022-09-12T06:10:36.698Z,56.79
2022-09-12T06:13:02.624Z,56.75
2022-09-12T06:15:28.629Z,56.50
2022-09-12T06:17:54.570Z,56.99
2022-09-12T06:20:20.559Z,55.95
2022-09-12T06:22:47.396Z,55.88
2022-09-12T06:25:13.334Z,55.73
2022-09-12T06:27:39.292Z,55.65
2022-09-12T06:30:05.977Z,55.81
2022-09-12T06:32:31.942Z,56.62
2022-09-12T06:34:57.875Z,56.48
2022-09-12T06:37:24.748Z,57.47
2022-09-12T06:39:50.723Z,57.18
2022-09-12T06:42:16.711Z,57.07
2022-09-12T06:44:42.634Z,56.36
2022-09-12T06:47:08.584Z,56.05
2022-09-12T06:49:34.590Z,56.30
2022-09-12T06:52:00.523Z,55.92
2022-09-12T06:54:26.825Z,55.13
2022-09-12T06:56:52.800Z,53.95
2022-09-12T06:59:18.778Z,53.01
2022-09-12T07:01:45.673Z,53.16
2022-09-12T07:04:11.720Z,53.28
2022-09-12T07:06:37.912Z,53.00
2022-09-12T07:09:03.897Z,53.31
2022-09-12T07:11:30.549Z,54.18
2022-09-12T07:16:22.521Z,53.42
2022-09-12T07:18:48.527Z,52.45
2022-09-12T07:21:14.484Z,52.00
2022-09-12T07:23:40.442Z,52.22
2022-09-12T07:26:06.453Z,51.66
2022-09-12T07:28:33.114Z,52.68
2022-09-12T07:30:59.487Z,51.32
2022-09-12T07:33:27.104Z,52.29
2022-09-12T07:35:53.375Z,52.24
2022-09-12T07:38:19.695Z,52.20
2022-09-12T07:40:47.145Z,51.42
2022-09-12T07:43:13.258Z,51.36
2022-09-12T09:23:28.591Z,44.46
2022-09-12T09:25:54.610Z,45.07
2022-09-12T09:28:20.546Z,43.70
2022-09-12T09:30:46.568Z,43.51
2022-09-12T09:33:12.545Z,43.98
2022-09-12T09:35:39.262Z,43.44
2022-09-12T09:38:05.239Z,45.43
2022-09-12T09:40:31.248Z,45.41
2022-09-12T09:42:57.209Z,43.66
2022-09-12T09:45:23.807Z,43.13
2022-09-12T09:47:49.774Z,41.92
2022-09-12T09:50:15.725Z,42.11
2022-09-12T09:52:41.661Z,42.43
2022-09-12T09:55:07.627Z,41.68
2022-09-12T09:57:33.565Z,41.77
2022-09-12T09:59:59.555Z,42.03
2022-09-12T10:02:26.338Z,42.34
2022-09-12T10:04:52.278Z,42.05
2022-09-12T10:07:18.240Z,42.16
2022-09-12T10:09:44.799Z,43.62
2022-09-12T10:12:10.820Z,43.94
2022-09-12T10:14:36.793Z,44.97
2022-09-12T10:17:03.519Z,42.91
2022-09-12T10:19:29.508Z,43.76
2022-09-12T10:21:55.458Z,42.96
2022-09-12T10:24:21.411Z,41.66
2022-09-12T10:26:47.475Z,40.64
2022-09-12T10:29:13.474Z,41.17
2022-09-12T10:31:39.408Z,42.81
2022-09-12T10:34:05.383Z,39.74
2022-09-12T10:36:32.178Z,38.99
2022-09-12T10:38:58.109Z,38.73
2022-09-12T10:41:24.974Z,37.87
2022-09-12T10:43:50.912Z,39.76
2022-09-12T10:46:16.918Z,39.18
2022-09-12T10:48:42.890Z,38.60
2022-09-12T10:51:09.065Z,38.95
2022-09-12T10:53:35.798Z,38.24
2022-09-12T10:56:01.789Z,36.96
2022-09-12T10:58:27.760Z,37.03
2022-09-12T11:00:54.480Z,34.35
2022-09-12T11:03:20.508Z,36.05
2022-09-12T11:05:46.455Z,38.32
2022-09-12T11:08:13.244Z,36.97
2022-09-12T11:10:43.772Z,36.94
2022-09-12T11:13:10.861Z,36.92
2022-09-12T11:15:36.871Z,37.07
2022-09-12T11:18:02.852Z,35.99
2022-09-12T11:20:28.916Z,33.50
2022-09-12T11:22:54.866Z,34.23
2022-09-12T11:25:21.027Z,32.97
2022-09-12T11:27:47.087Z,30.98
2022-09-12T11:30:13.130Z,33.36
2022-09-12T11:32:39.175Z,33.16
2022-09-12T11:35:05.183Z,33.17
2022-09-12T11:37:31.929Z,31.79
2022-09-12T11:39:57.903Z,33.59
2022-09-12T11:42:23.912Z,33.84
2022-09-12T11:44:50.746Z,32.92
2022-09-12T11:47:16.723Z,33.74
2022-09-12T11:49:42.791Z,32.21
2022-09-12T11:52:08.823Z,31.47
2022-09-12T11:54:35.441Z,31.78
2022-09-12T11:57:01.489Z,31.83
2022-09-12T11:59:27.422Z,32.13
2022-09-12T12:01:53.856Z,32.15
2022-09-12T12:04:20.149Z,30.99
2022-09-12T12:06:46.577Z,30.27
2022-09-12T12:09:13.010Z,30.62
2022-09-12T12:11:40.045Z,32.07
2022-09-12T12:16:47.830Z,34.31
2022-09-12T14:29:13.247Z,34.81
2022-09-12T14:31:39.860Z,35.62
2022-09-12T14:34:06.811Z,35.12
2022-09-12T14:36:33.079Z,35.47
2022-09-12T14:38:59.056Z,35.24
2022-09-12T14:41:25.010Z,33.76
2022-09-12T14:43:51.601Z,34.30
2022-09-12T14:46:17.561Z,34.58
2022-09-12T14:48:44.188Z,34.50
2022-09-12T14:51:10.276Z,35.97
2022-09-12T14:53:36.290Z,35.00
2022-09-12T14:56:03.233Z,35.09
2022-09-12T14:58:29.158Z,35.43
2022-09-12T15:00:55.113Z,34.40
2022-09-12T15:03:21.091Z,35.32
2022-09-12T15:05:47.019Z,34.92
2022-09-12T15:08:13.915Z,35.07
2022-09-12T15:10:41.889Z,34.64
2022-09-12T15:13:07.838Z,36.08
2022-09-12T15:15:33.849Z,35.99
2022-09-12T15:18:02.378Z,35.00
2022-09-12T15:20:31.821Z,34.94
2022-09-12T15:22:57.761Z,35.53
2022-09-12T15:25:23.710Z,35.11
2022-09-12T15:27:50.639Z,37.00
2022-09-12T15:30:16.607Z,37.12
2022-09-12T15:32:42.614Z,36.85
2022-09-12T15:35:09.275Z,37.41
2022-09-12T15:37:35.555Z,37.83
2022-09-12T15:40:01.679Z,36.64
2022-09-12T15:42:28.493Z,37.35
2022-09-12T15:44:54.423Z,37.15
2022-09-12T15:47:21.192Z,37.28
2022-09-12T15:49:48.089Z,36.25
2022-09-12T15:52:14.036Z,37.17
2022-09-12T15:54:40.002Z,36.90
2022-09-12T15:57:06.654Z,36.92
2022-09-12T15:59:32.877Z,37.52
2022-09-12T16:01:58.876Z,37.59
2022-09-12T16:04:24.846Z,36.87
2022-09-12T16:06:50.854Z,37.39
2022-09-12T16:09:16.950Z,37.73
2022-09-12T16:11:43.798Z,37.53
2022-09-12T16:14:09.806Z,38.02
2022-09-12T16:16:36.267Z,38.59
2022-09-12T16:19:02.204Z,39.91
2022-09-12T16:21:28.186Z,40.06
2022-09-12T16:23:54.156Z,39.17
2022-09-12T16:26:20.169Z,39.40
2022-09-12T16:28:46.578Z,38.64
2022-09-12T16:31:13.613Z,39.46
2022-09-12T16:33:41.623Z,39.15
2022-09-12T16:36:07.570Z,39.69
2022-09-12T16:38:34.404Z,39.74
2022-09-12T16:41:00.370Z,40.74
2022-09-12T16:43:26.299Z,41.05
2022-09-12T16:45:52.309Z,40.80
2022-09-12T16:48:18.703Z,40.70
2022-09-12T16:50:45.528Z,41.10
2022-09-12T16:53:11.509Z,41.72
2022-09-12T16:55:37.448Z,41.45
2022-09-12T16:58:04.310Z,41.51
2022-09-12T17:00:30.292Z,41.39
2022-09-12T17:02:56.301Z,41.29
2022-09-12T17:05:22.281Z,42.08
2022-09-12T17:07:48.575Z,42.31
2022-09-12T17:10:14.835Z,42.17
2022-09-12T17:12:42.389Z,42.41
2022-09-12T17:15:08.666Z,42.03
2022-09-12T17:17:34.966Z,42.75
2022-09-12T17:20:01.133Z,42.33
2022-09-12T17:22:27.366Z,42.55
2022-09-12T19:14:08.662Z,49.97
2022-09-12T19:16:34.586Z,50.06
2022-09-12T19:19:01.300Z,50.34
2022-09-12T19:21:27.322Z,50.41
2022-09-12T19:23:53.296Z,50.20
2022-09-12T19:26:19.821Z,50.54
2022-09-12T19:28:45.844Z,50.55
2022-09-12T19:31:11.817Z,50.88
2022-09-12T19:33:37.826Z,50.71
2022-09-12T19:36:03.809Z,50.62
2022-09-12T19:38:30.264Z,51.62
2022-09-12T19:40:56.434Z,51.86
2022-09-12T19:43:22.375Z,51.78
2022-09-12T19:45:49.007Z,52.38
2022-09-12T19:48:15.022Z,52.33
2022-09-12T19:50:40.971Z,52.53
2022-09-12T19:53:06.912Z,52.81
2022-09-12T19:55:33.543Z,52.43
2022-09-12T19:57:59.489Z,52.58
2022-09-12T20:00:25.466Z,53.06
2022-09-12T20:02:52.325Z,53.44
2022-09-12T20:05:18.318Z,53.11
2022-09-12T20:07:44.255Z,53.30
2022-09-12T20:10:11.029Z,52.76
2022-09-12T20:12:36.985Z,53.43
2022-09-12T20:15:02.949Z,53.97
2022-09-12T20:17:29.634Z,54.08
2022-09-12T20:19:55.561Z,54.01
2022-09-12T20:22:21.515Z,54.68
2022-09-12T20:24:48.240Z,54.52
2022-09-12T20:27:14.385Z,54.24
2022-09-12T20:29:40.327Z,54.55
2022-09-12T20:32:06.274Z,54.67
2022-09-12T20:34:32.242Z,54.99
2022-09-12T20:36:58.834Z,55.62
2022-09-12T20:39:24.794Z,55.18
2022-09-12T20:41:51.504Z,54.98
2022-09-12T20:44:17.487Z,54.67
2022-09-12T20:46:43.484Z,54.82
2022-09-12T20:49:09.526Z,54.53
2022-09-12T20:51:35.499Z,55.04
2022-09-12T20:54:02.107Z,55.63
2022-09-12T20:56:28.134Z,55.49
2022-09-12T20:58:54.124Z,55.07
2022-09-12T21:01:20.304Z,54.90
2022-09-12T21:03:46.393Z,55.00
2022-09-12T21:06:12.409Z,55.10
2022-09-12T21:08:39.120Z,55.82
2022-09-12T21:11:05.092Z,56.25
2022-09-12T21:13:31.080Z,56.42
2022-09-12T21:15:57.803Z,55.93
2022-09-12T21:18:23.964Z,56.75
2022-09-12T21:20:49.925Z,56.42
2022-09-12T21:23:15.899Z,56.49
2022-09-12T21:25:51.922Z,56.91
2022-09-12T21:28:18.293Z,57.41
2022-09-12T21:30:44.252Z,57.25
2022-09-12T21:33:10.897Z,56.79
2022-09-12T21:35:36.891Z,57.21
2022-09-12T21:38:02.819Z,57.68
2022-09-12T21:40:29.519Z,57.90
2022-09-12T21:42:55.516Z,57.85
2022-09-12T21:45:21.459Z,57.90
2022-09-12T21:47:47.416Z,57.74
2022-09-12T21:50:13.664Z,57.43
2022-09-12T21:52:41.356Z,57.65
2022-09-12T21:55:07.571Z,57.64
2022-09-12T21:57:33.844Z,58.70
2022-09-12T22:00:00.092Z,58.39
2022-09-12T22:02:26.465Z,58.54
2022-09-12T22:04:52.728Z,58.78
2022-09-12T22:07:19.898Z,58.76
